createdAt,value
2023-02-01T00:02:48.709Z,99469.36
2023-02-01T00:05:54.516Z,99469.89
2023-02-01T00:09:03.981Z,99462.64
2023-02-01T00:12:11.201Z,99460.63
2023-02-01T00:15:17.452Z,99458.58
2023-02-01T00:18:16.682Z,99451.57
2023-02-01T00:21:23.353Z,99447.16
2023-02-01T00:24:29.574Z,99450.36
2023-02-01T00:27:36.463Z,99446.83
2023-02-01T00:30:34.548Z,99445.33
2023-02-01T00:33:39.794Z,99440.26
2023-02-01T00:36:45.951Z,99433.99
2023-02-01T00:39:53.162Z,99435.47
2023-02-01T00:42:59.040Z,99438.27
2023-02-01T00:46:04.721Z,99439.85
2023-02-01T00:49:10.716Z,99438.75
2023-02-01T00:52:15.765Z,99438.16
2023-02-01T00:55:21.373Z,99434.34
2023-02-01T00:58:27.589Z,99428.16
2023-02-01T01:01:36.686Z,99423.67
2023-02-01T01:04:43.320Z,99414.58
2023-02-01T01:07:50.168Z,99414.75
2023-02-01T01:10:57.250Z,99409.17
2023-02-01T01:14:04.810Z,99405.91
2023-02-01T01:17:10.533Z,99409.38
2023-02-01T01:20:16.800Z,99401.95
2023-02-01T01:23:23.741Z,99398.20
2023-02-01T01:26:35.684Z,99400.62
2023-02-01T01:29:41.706Z,99402.03
2023-02-01T01:32:48.004Z,99403.77
2023-02-01T01:35:53.899Z,99403.50
2023-02-01T01:39:00.594Z,99407.55
2023-02-01T01:42:07.437Z,99413.59
2023-02-01T01:45:23.026Z,99417.48
2023-02-01T01:48:33.210Z,99410.32
2023-02-01T01:51:38.375Z,99409.97
2023-02-01T01:54:47.746Z,99412.80
2023-02-01T01:57:51.043Z,99405.69
2023-02-01T02:00:43.665Z,99409.59
2023-02-01T02:03:52.691Z,99410.66
2023-02-01T02:07:20.452Z,99409.19
2023-02-01T02:10:28.154Z,99404.92
2023-02-01T02:13:33.833Z,99396.69
2023-02-01T02:17:04.147Z,99394.98
2023-02-01T02:20:27.790Z,99393.75
2023-02-01T02:24:00.392Z,99395.17
2023-02-01T02:27:17.483Z,99396.27
2023-02-01T02:30:46.328Z,99394.86
2023-02-01T02:34:18.742Z,99392.70
2023-02-01T02:37:41.530Z,99394.72
2023-02-01T02:41:09.288Z,99396.77
2023-02-01T02:44:32.300Z,99399.80
2023-02-01T02:48:03.403Z,99396.69
2023-02-01T02:51:47.634Z,99399.66
2023-02-01T02:54:58.205Z,99403.12
2023-02-01T02:58:22.781Z,99402.76
2023-02-01T03:01:46.646Z,99400.31
2023-02-01T03:04:52.542Z,99402.65
2023-02-01T03:08:33.308Z,99395.96
2023-02-01T03:11:41.709Z,99397.53
2023-02-01T03:14:47.456Z,99393.55
2023-02-01T03:17:55.237Z,99391.64
2023-02-01T03:21:02.831Z,99392.07
2023-02-01T03:24:09.402Z,99393.83
2023-02-01T03:27:22.456Z,99399.58
2023-02-01T03:30:48.153Z,99392.41
2023-02-01T03:33:53.546Z,99397.66
2023-02-01T03:37:07.209Z,99393.91
2023-02-01T03:40:20.687Z,99387.66
2023-02-01T03:43:21.786Z,99387.64
2023-02-01T03:46:29.435Z,99386.48
2023-02-01T03:49:53.446Z,99391.25
2023-02-01T03:53:06.130Z,99393.64
2023-02-01T03:56:11.435Z,99398.06
2023-02-01T03:59:17.225Z,99395.34
2023-02-01T04:02:24.127Z,99398.75
2023-02-01T04:05:28.971Z,99392.86
2023-02-01T04:08:36.273Z,99402.52
2023-02-01T04:11:41.870Z,99403.43
2023-02-01T04:14:47.794Z,99402.39
2023-02-01T04:17:53.373Z,99393.77
2023-02-01T04:20:59.018Z,99396.49
2023-02-01T04:24:05.818Z,99401.84
2023-02-01T04:27:12.698Z,99410.28
2023-02-01T04:30:21.046Z,99411.38
2023-02-01T04:33:26.765Z,99409.47
2023-02-01T04:36:32.408Z,99406.55
2023-02-01T04:39:32.451Z,99405.20
2023-02-01T04:42:37.892Z,99401.05
2023-02-01T04:45:42.400Z,99401.89
2023-02-01T04:48:49.447Z,99403.58
2023-02-01T04:51:55.315Z,99410.09
2023-02-01T04:55:02.020Z,99411.09
2023-02-01T04:58:08.606Z,99410.17
2023-02-01T05:01:13.376Z,99408.82
2023-02-01T05:04:19.196Z,99406.13
2023-02-01T05:07:25.715Z,99409.32
2023-02-01T05:10:30.659Z,99418.19
2023-02-01T05:13:55.102Z,99421.03
2023-02-01T05:17:00.271Z,99426.27
2023-02-01T05:20:06.824Z,99428.97
2023-02-01T05:23:13.729Z,99430.50
2023-02-01T05:26:19.894Z,99430.91
2023-02-01T05:29:26.881Z,99431.44
2023-02-01T05:32:33.128Z,99442.52
2023-02-01T05:35:39.957Z,99447.31
2023-02-01T05:38:46.216Z,99449.39
2023-02-01T05:41:51.154Z,99452.37
2023-02-01T05:44:56.903Z,99452.89
2023-02-01T05:48:02.421Z,99452.97
2023-02-01T05:51:08.753Z,99453.96
2023-02-01T05:54:14.521Z,99456.03
2023-02-01T05:57:21.750Z,99456.27
2023-02-01T06:00:28.915Z,99452.14
2023-02-01T06:03:34.712Z,99460.13
2023-02-01T06:06:40.408Z,99466.75
2023-02-01T06:09:46.626Z,99470.20
2023-02-01T06:12:54.184Z,99475.61
2023-02-01T06:15:59.874Z,99483.75
2023-02-01T06:19:06.201Z,99483.66
2023-02-01T06:22:14.334Z,99479.06
2023-02-01T06:25:21.563Z,99483.27
2023-02-01T06:28:28.006Z,99480.39
2023-02-01T06:31:33.446Z,99479.36
2023-02-01T06:34:38.389Z,99481.72
2023-02-01T06:37:43.824Z,99487.32
2023-02-01T06:40:50.232Z,99485.34
2023-02-01T06:43:56.886Z,99482.48
2023-02-01T06:47:02.990Z,99485.95
2023-02-01T06:50:08.470Z,99484.53
2023-02-01T06:53:14.708Z,99493.02
2023-02-01T06:56:26.438Z,99487.05
2023-02-01T06:59:31.981Z,99491.84
2023-02-01T07:02:36.813Z,99491.25
2023-02-01T07:05:43.296Z,99489.30
2023-02-01T07:08:51.738Z,99493.36
2023-02-01T07:11:58.381Z,99495.76
2023-02-01T07:15:05.095Z,99498.75
2023-02-01T07:18:11.639Z,99496.67
2023-02-01T07:21:17.695Z,99503.20
2023-02-01T07:24:22.787Z,99505.25
2023-02-01T07:27:29.245Z,99506.81
2023-02-01T07:30:36.359Z,99507.66
2023-02-01T07:33:42.527Z,99510.17
2023-02-01T07:36:49.832Z,99509.88
2023-02-01T07:40:00.117Z,99505.30
2023-02-01T07:43:06.978Z,99510.20
2023-02-01T07:46:12.822Z,99505.58
2023-02-01T07:49:20.614Z,99507.26
2023-02-01T07:52:25.668Z,99503.25
2023-02-01T07:55:33.149Z,99503.25
2023-02-01T07:58:40.086Z,99510.41
2023-02-01T08:01:45.794Z,99512.27
2023-02-01T08:04:50.587Z,99512.75
2023-02-01T08:07:56.045Z,99511.86
2023-02-01T08:11:03.223Z,99508.21
2023-02-01T08:14:08.730Z,99501.95
2023-02-01T08:17:14.076Z,99504.95
2023-02-01T08:20:19.600Z,99506.53
2023-02-01T08:23:25.291Z,99507.99
2023-02-01T08:26:36.141Z,99508.23
2023-02-01T08:29:41.456Z,99504.09
2023-02-01T08:32:46.884Z,99498.64
2023-02-01T08:35:53.217Z,99488.61
2023-02-01T08:38:59.729Z,99495.38
2023-02-01T08:42:23.136Z,99485.10
2023-02-01T08:45:52.193Z,99479.33
2023-02-01T08:48:58.707Z,99485.54
2023-02-01T08:52:10.638Z,99487.05
2023-02-01T08:55:13.440Z,99479.52
2023-02-01T08:58:22.130Z,99477.64
2023-02-01T09:01:30.146Z,99479.70
2023-02-01T09:04:35.686Z,99470.99
2023-02-01T09:07:40.872Z,99475.98
2023-02-01T09:10:46.902Z,99468.52
2023-02-01T09:13:52.912Z,99454.60
2023-02-01T09:16:59.684Z,99461.98
2023-02-01T09:20:05.628Z,99463.84
2023-02-01T09:23:13.973Z,99460.89
2023-02-01T09:26:22.944Z,99454.83
2023-02-01T09:29:30.684Z,99450.59
2023-02-01T09:32:38.110Z,99452.59
2023-02-01T09:35:46.402Z,99444.53
2023-02-01T09:38:53.157Z,99443.45
2023-02-01T09:42:24.895Z,99452.90
2023-02-01T09:45:49.900Z,99459.07
2023-02-01T09:48:55.710Z,99460.51
2023-02-01T09:52:03.949Z,99449.34
2023-02-01T09:55:15.996Z,99449.80
2023-02-01T09:58:47.606Z,99447.90
2023-02-01T10:01:52.995Z,99437.41
2023-02-01T10:04:59.445Z,99431.81
2023-02-01T10:08:18.304Z,99435.44
2023-02-01T10:11:52.390Z,99437.84
2023-02-01T10:15:32.669Z,99436.17
2023-02-01T10:19:02.272Z,99434.61
2023-02-01T10:22:41.042Z,99442.70
2023-02-01T10:25:57.540Z,99441.72
2023-02-01T10:28:50.996Z,99446.59
2023-02-01T10:31:57.346Z,99446.79
2023-02-01T10:35:14.587Z,99446.16
2023-02-01T10:38:22.920Z,99451.58
2023-02-01T10:41:37.355Z,99447.19
2023-02-01T10:44:43.607Z,99445.99
2023-02-01T10:47:49.311Z,99449.80
2023-02-01T10:51:03.993Z,99447.14
2023-02-01T10:53:59.755Z,99446.75
2023-02-01T10:57:05.053Z,99450.98
2023-02-01T11:00:11.998Z,99451.23
2023-02-01T11:03:17.457Z,99441.03
2023-02-01T11:06:30.476Z,99438.33
2023-02-01T11:09:39.541Z,99443.05
2023-02-01T11:12:49.729Z,99442.15
2023-02-01T11:15:55.449Z,99441.19
2023-02-01T11:19:00.670Z,99447.06
2023-02-01T11:22:11.233Z,99440.87
2023-02-01T11:25:17.679Z,99438.05
2023-02-01T11:28:23.802Z,99435.57
2023-02-01T11:31:29.655Z,99436.47
2023-02-01T11:34:37.415Z,99434.11
2023-02-01T11:37:55.314Z,99429.89
2023-02-01T11:41:00.986Z,99432.52
2023-02-01T11:44:15.709Z,99435.63
2023-02-01T11:47:42.314Z,99439.63
2023-02-01T11:51:07.343Z,99436.66
2023-02-01T11:54:46.879Z,99440.19
2023-02-01T11:58:21.969Z,99451.17
2023-02-01T12:01:49.310Z,99442.78
2023-02-01T12:05:13.485Z,99447.83
2023-02-01T12:08:35.982Z,99446.61
2023-02-01T12:11:54.791Z,99444.18
2023-02-01T12:15:25.542Z,99459.17
2023-02-01T12:18:41.903Z,99449.08
2023-02-01T12:22:01.416Z,99449.36
2023-02-01T12:25:24.193Z,99451.12
2023-02-01T12:29:22.499Z,99444.08
2023-02-01T12:32:55.953Z,99448.23
2023-02-01T12:36:25.071Z,99450.38
2023-02-01T12:39:46.234Z,99452.08
2023-02-01T12:43:25.565Z,99458.48
2023-02-01T12:46:57.912Z,99457.24
2023-02-01T12:50:12.154Z,99442.16
2023-02-01T12:53:32.038Z,99443.45
2023-02-01T12:56:54.038Z,99440.86
2023-02-01T13:00:19.323Z,99450.09
2023-02-01T13:04:08.374Z,99451.12
2023-02-01T13:07:24.060Z,99458.94
2023-02-01T13:10:51.394Z,99458.64
2023-02-01T13:14:34.689Z,99464.05
2023-02-01T13:17:43.172Z,99460.57
2023-02-01T13:20:55.441Z,99459.27
2023-02-01T13:24:03.458Z,99462.02
2023-02-01T13:27:10.182Z,99463.42
2023-02-01T13:30:25.896Z,99459.28
2023-02-01T13:33:56.733Z,99455.00
2023-02-01T13:37:35.201Z,99462.87
2023-02-01T13:41:10.612Z,99470.14
2023-02-01T13:44:23.001Z,99465.53
2023-02-01T13:47:42.364Z,99471.00
2023-02-01T13:50:52.820Z,99480.59
2023-02-01T13:54:03.401Z,99483.66
2023-02-01T13:57:09.323Z,99480.12
2023-02-01T14:00:45.633Z,99485.80
2023-02-01T14:04:02.635Z,99486.95
2023-02-01T14:07:09.796Z,99483.59
2023-02-01T14:10:52.896Z,99486.30
2023-02-01T14:13:59.248Z,99487.64
2023-02-01T14:17:18.837Z,99491.34
2023-02-01T14:21:00.452Z,99489.95
2023-02-01T14:24:14.890Z,99503.80
2023-02-01T14:27:35.894Z,99505.53
2023-02-01T14:30:41.634Z,99513.22
2023-02-01T14:33:47.863Z,99509.11
2023-02-01T14:37:00.383Z,99512.45
2023-02-01T14:40:18.775Z,99518.55
2023-02-01T14:43:32.617Z,99517.43
2023-02-01T14:46:31.798Z,99517.92
2023-02-01T14:49:37.416Z,99511.57
2023-02-01T14:53:27.582Z,99519.48
2023-02-01T14:56:33.607Z,99522.02
2023-02-01T14:59:41.699Z,99521.84
2023-02-01T15:02:47.750Z,99530.36
2023-02-01T15:05:55.318Z,99532.49
2023-02-01T15:09:02.447Z,99535.19
2023-02-01T15:12:22.288Z,99534.13
2023-02-01T15:15:39.610Z,99540.00
2023-02-01T15:18:44.931Z,99538.92
2023-02-01T15:21:59.193Z,99541.13
2023-02-01T15:25:10.422Z,99541.89
2023-02-01T15:28:16.099Z,99533.45
2023-02-01T15:31:23.171Z,99529.64
2023-02-01T15:34:28.658Z,99535.65
2023-02-01T15:37:36.217Z,99540.09
2023-02-01T15:40:42.198Z,99541.13
2023-02-01T15:44:02.341Z,99543.55
2023-02-01T15:47:08.460Z,99542.20
2023-02-01T15:50:16.005Z,99534.81
2023-02-01T15:53:18.517Z,99541.36
2023-02-01T15:56:23.488Z,99553.63
2023-02-01T15:59:32.558Z,99543.06
2023-02-01T16:02:52.506Z,99550.73
2023-02-01T16:05:58.630Z,99545.41
2023-02-01T16:09:26.048Z,99542.79
2023-02-01T16:12:44.186Z,99548.64
2023-02-01T16:15:51.463Z,99552.91
2023-02-01T16:18:57.547Z,99552.55
2023-02-01T16:22:03.392Z,99545.73
2023-02-01T16:25:02.699Z,99544.16
2023-02-01T16:27:49.020Z,99548.44
2023-02-01T16:30:41.906Z,99550.62
2023-02-01T16:33:35.672Z,99554.34
2023-02-01T16:36:41.750Z,99557.34
2023-02-01T16:39:48.786Z,99548.10
2023-02-01T16:42:55.825Z,99550.69
2023-02-01T16:46:03.830Z,99554.18
2023-02-01T16:49:12.204Z,99557.98
2023-02-01T16:52:17.143Z,99550.31
2023-02-01T16:55:31.839Z,99550.55
2023-02-01T16:58:38.467Z,99551.40
2023-02-01T17:01:49.772Z,99555.67
2023-02-01T17:04:56.802Z,99561.39
2023-02-01T17:08:03.412Z,99560.09
2023-02-01T17:11:09.018Z,99564.94
2023-02-01T17:14:33.653Z,99560.19
2023-02-01T17:17:40.241Z,99559.16
2023-02-01T17:20:47.935Z,99560.09
2023-02-01T17:23:54.257Z,99554.41
2023-02-01T17:27:00.449Z,99566.89
2023-02-01T17:30:07.240Z,99586.56
2023-02-01T17:33:21.821Z,99595.64
2023-02-01T17:36:20.682Z,99591.10
2023-02-01T17:39:43.029Z,99585.94
2023-02-01T17:42:48.924Z,99592.33
2023-02-01T17:46:09.888Z,99587.78
2023-02-01T17:49:15.184Z,99589.36
2023-02-01T17:52:23.594Z,99580.64
2023-02-01T17:55:36.839Z,99579.59
2023-02-01T17:58:42.623Z,99574.22
2023-02-01T18:01:48.835Z,99577.14
2023-02-01T18:04:47.364Z,99572.50
2023-02-01T18:07:53.880Z,99563.00
2023-02-01T18:11:01.422Z,99574.53
2023-02-01T18:14:08.137Z,99571.23
2023-02-01T18:17:14.159Z,99572.52
2023-02-01T18:20:22.841Z,99561.03
2023-02-01T18:23:34.118Z,99556.38
2023-02-01T18:26:39.824Z,99556.88
2023-02-01T18:29:46.073Z,99566.95
2023-02-01T18:32:52.528Z,99564.02
2023-02-01T18:35:52.294Z,99562.58
2023-02-01T18:38:58.061Z,99566.58
2023-02-01T18:42:04.341Z,99555.25
2023-02-01T18:45:10.277Z,99559.91
2023-02-01T18:48:19.791Z,99552.88
2023-02-01T18:51:27.831Z,99557.92
2023-02-01T18:54:32.882Z,99559.70
2023-02-01T18:57:40.582Z,99566.98
2023-02-01T19:00:46.130Z,99565.61
2023-02-01T19:03:55.494Z,99570.67
2023-02-01T19:07:01.461Z,99568.04
2023-02-01T19:10:08.344Z,99562.84
2023-02-01T19:13:14.895Z,99564.93
2023-02-01T19:16:26.166Z,99568.76
2023-02-01T19:19:31.810Z,99569.97
2023-02-01T19:22:37.893Z,99574.34
2023-02-01T19:25:37.228Z,99567.22
2023-02-01T19:28:44.334Z,99559.52
2023-02-01T19:31:51.188Z,99554.00
2023-02-01T19:34:57.763Z,99555.92
2023-02-01T19:38:04.549Z,99551.53
2023-02-01T19:41:13.583Z,99548.75
2023-02-01T19:44:12.674Z,99547.20
2023-02-01T19:47:20.263Z,99555.52
2023-02-01T19:50:31.826Z,99554.91
2023-02-01T19:53:38.168Z,99565.86
2023-02-01T19:56:44.150Z,99562.81
2023-02-01T19:59:51.086Z,99557.42
2023-02-01T20:02:56.138Z,99555.64
2023-02-01T20:06:07.565Z,99563.53
2023-02-01T20:09:12.938Z,99563.83
2023-02-01T20:12:19.085Z,99562.92
2023-02-01T20:15:25.801Z,99562.13
2023-02-01T20:18:31.802Z,99564.97
2023-02-01T20:21:37.627Z,99562.31
2023-02-01T20:24:42.961Z,99564.08
2023-02-01T20:27:49.961Z,99561.06
2023-02-01T20:31:01.097Z,99558.16
2023-02-01T20:34:07.222Z,99563.27
2023-02-01T20:37:13.808Z,99562.73
2023-02-01T20:40:20.766Z,99561.83
2023-02-01T20:43:26.143Z,99558.84
2023-02-01T20:46:32.473Z,99548.56
2023-02-01T20:49:39.038Z,99547.27
2023-02-01T20:52:44.838Z,99554.39
2023-02-01T20:55:49.939Z,99552.76
2023-02-01T20:58:55.759Z,99557.70
2023-02-01T21:02:02.209Z,99558.29
2023-02-01T21:05:07.941Z,99557.13
2023-02-01T21:08:13.390Z,99551.65
2023-02-01T21:11:25.790Z,99565.06
2023-02-01T21:14:30.751Z,99566.77
2023-02-01T21:17:35.849Z,99563.17
2023-02-01T21:20:43.309Z,99560.21
2023-02-01T21:23:56.476Z,99555.47
2023-02-01T21:27:02.821Z,99555.47
2023-02-01T21:30:08.803Z,99558.27
2023-02-01T21:33:15.325Z,99560.38
2023-02-01T21:36:23.414Z,99557.83
2023-02-01T21:39:29.436Z,99552.63
2023-02-01T21:42:35.937Z,99550.02
2023-02-01T21:45:46.122Z,99556.43
2023-02-01T21:49:04.418Z,99547.33
2023-02-01T21:51:56.773Z,99544.05
2023-02-01T21:55:06.350Z,99536.22
2023-02-01T21:58:13.697Z,99546.36
2023-02-01T22:01:18.922Z,99541.67
2023-02-01T22:04:25.502Z,99538.09
2023-02-01T22:07:33.009Z,99528.30
2023-02-01T22:10:38.212Z,99525.62
2023-02-01T22:13:43.989Z,99531.11
2023-02-01T22:16:49.507Z,99526.37
2023-02-01T22:19:54.753Z,99529.34
2023-02-01T22:23:03.319Z,99526.88
2023-02-01T22:26:18.063Z,99523.17
2023-02-01T22:29:24.813Z,99524.75
2023-02-01T22:32:32.321Z,99521.12
2023-02-01T22:35:37.099Z,99519.92
2023-02-01T22:38:44.312Z,99514.80
2023-02-01T22:41:50.012Z,99519.97
2023-02-01T22:44:55.742Z,99512.77
2023-02-01T22:48:03.554Z,99517.50
2023-02-01T22:51:14.104Z,99516.50
2023-02-01T22:54:20.348Z,99515.73
2023-02-01T22:57:25.835Z,99509.67
2023-02-01T23:00:31.840Z,99510.11
2023-02-01T23:03:38.710Z,99503.94
2023-02-01T23:06:51.277Z,99502.82
2023-02-01T23:09:58.143Z,99500.47
2023-02-01T23:13:03.606Z,99502.94
2023-02-01T23:16:09.535Z,99506.14
2023-02-01T23:19:14.849Z,99504.28
2023-02-01T23:22:20.730Z,99500.30
2023-02-01T23:25:27.951Z,99492.45
2023-02-01T23:28:33.720Z,99496.19
2023-02-01T23:31:44.162Z,99497.84
2023-02-01T23:34:49.673Z,99499.67
2023-02-01T23:37:56.242Z,99500.67
2023-02-01T23:41:02.017Z,99497.20
2023-02-01T23:44:08.585Z,99488.61
2023-02-01T23:47:08.169Z,99486.26
2023-02-01T23:50:13.501Z,99495.50
2023-02-01T23:53:19.458Z,99489.52
2023-02-01T23:56:43.514Z,99482.78
2023-02-01T23:59:50.679Z,99487.17
